createdAt,value
2023-03-14T00:00:53.076Z,98679.47
2023-03-14T00:03:19.994Z,98674.41
2023-03-14T00:05:46.835Z,98673.06
2023-03-14T00:08:13.564Z,98668.94
2023-03-14T00:10:40.284Z,98660.47
2023-03-14T00:13:08.048Z,98645.78
2023-03-14T00:15:35.352Z,98645.22
2023-03-14T00:18:02.585Z,98658.06
2023-03-14T00:20:29.163Z,98661.81
2023-03-14T00:22:55.694Z,98665.63
2023-03-14T00:25:22.367Z,98675.97
2023-03-14T00:27:51.723Z,98657.16
2023-03-14T00:30:18.515Z,98637.25
2023-03-14T00:32:45.256Z,98639.56
2023-03-14T00:35:11.975Z,98639.81
2023-03-14T00:37:38.649Z,98649.63
2023-03-14T00:40:07.762Z,98651.56
2023-03-14T00:42:34.447Z,98652.81
2023-03-14T00:45:01.055Z,98663.25
2023-03-14T00:47:27.680Z,98675.56
2023-03-14T00:49:54.261Z,98670.09
2023-03-14T00:52:20.915Z,98659.72
2023-03-14T00:54:47.560Z,98656.09
2023-03-14T00:57:14.156Z,98665.53
2023-03-14T00:59:40.698Z,98663.34
2023-03-14T01:02:07.356Z,98674.41
2023-03-14T01:04:34.188Z,98679.94
2023-03-14T01:07:00.725Z,98689.59
2023-03-14T01:09:27.326Z,98689.63
2023-03-14T01:11:53.924Z,98703.47
2023-03-14T01:14:20.483Z,98697.81
2023-03-14T01:16:47.199Z,98689.28
2023-03-14T01:19:13.974Z,98699.09
2023-03-14T01:21:40.566Z,98697.34
2023-03-14T01:24:07.742Z,98692.59
2023-03-14T01:26:35.784Z,98679.88
2023-03-14T01:29:02.791Z,98684.22
2023-03-14T01:31:29.567Z,98676.88
2023-03-14T01:33:56.200Z,98674.72
2023-03-14T01:36:22.748Z,98669.03
2023-03-14T01:38:49.400Z,98664.28
2023-03-14T01:41:18.827Z,98656.25
2023-03-14T01:43:46.235Z,98665.72
2023-03-14T01:46:19.123Z,98663.16
2023-03-14T01:48:52.874Z,98656.50
2023-03-14T01:51:42.894Z,98657.56
2023-03-14T01:54:21.257Z,98660.47
2023-03-14T01:56:54.312Z,98661.97
2023-03-14T01:59:21.396Z,98661.09
2023-03-14T02:01:50.515Z,98656.75
2023-03-14T02:04:19.236Z,98656.44
2023-03-14T02:06:51.191Z,98660.31
2023-03-14T02:09:18.010Z,98653.13
2023-03-14T02:11:44.990Z,98648.00
2023-03-14T02:14:22.740Z,98639.16
2023-03-14T02:16:49.549Z,98642.59
2023-03-14T02:19:21.845Z,98640.78
2023-03-14T02:22:01.964Z,98635.13
2023-03-14T02:24:39.114Z,98638.19
2023-03-14T02:27:13.297Z,98645.22
2023-03-14T02:29:56.321Z,98616.03
2023-03-14T02:32:25.107Z,98619.41
2023-03-14T02:34:58.197Z,98625.94
2023-03-14T02:37:30.165Z,98623.44
2023-03-14T02:39:57.005Z,98620.75
2023-03-14T02:42:23.502Z,98625.31
2023-03-14T02:44:56.096Z,98606.81
2023-03-14T02:47:28.598Z,98607.03
2023-03-14T02:50:01.984Z,98594.09
2023-03-14T02:52:28.770Z,98593.06
2023-03-14T02:54:55.280Z,98590.88
2023-03-14T02:57:22.038Z,98569.69
2023-03-14T02:59:48.543Z,98581.38
2023-03-14T03:02:15.104Z,98559.28
2023-03-14T03:04:41.854Z,98548.97
2023-03-14T03:07:08.465Z,98544.59
2023-03-14T03:09:35.103Z,98539.50
2023-03-14T03:12:01.769Z,98526.91
2023-03-14T03:14:28.268Z,98525.19
2023-03-14T03:16:54.824Z,98526.91
2023-03-14T03:19:22.054Z,98527.44
2023-03-14T03:21:49.366Z,98520.75
2023-03-14T03:24:15.934Z,98515.56
2023-03-14T03:26:42.600Z,98501.75
2023-03-14T03:29:09.138Z,98501.19
2023-03-14T03:31:38.384Z,98492.53
2023-03-14T03:34:05.286Z,98480.16
2023-03-14T03:36:32.474Z,98474.84
2023-03-14T03:38:58.973Z,98464.56
2023-03-14T03:41:25.815Z,98456.97
2023-03-14T03:43:52.469Z,98446.16
2023-03-14T03:46:19.026Z,98445.53
2023-03-14T03:48:45.844Z,98440.91
2023-03-14T03:51:16.774Z,98440.28
2023-03-14T03:53:43.819Z,98438.19
2023-03-14T03:56:10.941Z,98430.25
2023-03-14T03:58:39.865Z,98431.94
2023-03-14T04:01:10.303Z,98431.41
2023-03-14T04:03:40.013Z,98423.47
2023-03-14T04:06:09.542Z,98426.75
2023-03-14T04:08:36.303Z,98426.03
2023-03-14T04:11:04.443Z,98422.19
2023-03-14T04:13:31.038Z,98421.56
2023-03-14T04:15:57.844Z,98424.59
2023-03-14T04:18:27.925Z,98427.25
2023-03-14T04:20:58.692Z,98427.97
2023-03-14T04:23:26.004Z,98431.69
2023-03-14T04:25:53.305Z,98430.56
2023-03-14T04:28:20.224Z,98425.09
2023-03-14T04:30:46.856Z,98428.31
2023-03-14T04:33:18.389Z,98420.56
2023-03-14T04:35:46.201Z,98418.69
2023-03-14T04:38:13.826Z,98411.44
2023-03-14T04:40:41.895Z,98416.75
2023-03-14T04:43:11.127Z,98417.16
2023-03-14T04:45:38.568Z,98413.75
2023-03-14T04:48:05.478Z,98402.09
2023-03-14T04:50:31.979Z,98404.16
2023-03-14T04:52:58.504Z,98401.25
2023-03-14T04:55:25.428Z,98401.84
2023-03-14T04:57:51.961Z,98395.69
2023-03-14T05:00:19.432Z,98397.56
2023-03-14T05:02:46.922Z,98400.66
2023-03-14T05:05:13.430Z,98400.53
2023-03-14T05:07:39.948Z,98397.22
2023-03-14T05:10:06.828Z,98388.72
2023-03-14T05:12:33.373Z,98381.22
2023-03-14T05:14:59.876Z,98383.53
2023-03-14T05:17:26.534Z,98392.84
2023-03-14T05:19:53.085Z,98389.38
2023-03-14T05:22:19.632Z,98388.34
2023-03-14T05:24:46.543Z,98391.88
2023-03-14T05:27:13.060Z,98401.13
2023-03-14T05:29:39.578Z,98394.22
2023-03-14T05:32:06.534Z,98381.81
2023-03-14T05:34:33.288Z,98386.03
2023-03-14T05:37:00.001Z,98384.59
2023-03-14T05:39:26.783Z,98373.50
2023-03-14T05:41:54.977Z,98377.19
2023-03-14T05:44:21.605Z,98372.53
2023-03-14T05:46:48.344Z,98366.47
2023-03-14T05:49:14.904Z,98373.47
2023-03-14T05:51:41.436Z,98373.91
2023-03-14T05:54:08.238Z,98382.34
2023-03-14T05:56:34.752Z,98386.16
2023-03-14T05:59:03.258Z,98376.75
2023-03-14T06:01:30.967Z,98387.25
2023-03-14T06:03:57.547Z,98386.00
2023-03-14T06:06:24.108Z,98390.28
2023-03-14T06:08:51.131Z,98399.38
2023-03-14T06:11:17.691Z,98400.91
2023-03-14T06:13:44.296Z,98406.41
2023-03-14T06:16:11.215Z,98417.06
2023-03-14T06:18:37.878Z,98409.06
2023-03-14T06:21:04.568Z,98445.03
2023-03-14T06:23:33.014Z,98436.53
2023-03-14T06:25:59.630Z,98424.66
2023-03-14T06:28:26.386Z,98437.59
2023-03-14T06:30:53.297Z,98443.59
2023-03-14T06:33:19.918Z,98446.41
2023-03-14T06:35:46.577Z,98452.06
2023-03-14T06:38:13.325Z,98461.44
2023-03-14T06:40:39.981Z,98468.69
2023-03-14T06:43:06.963Z,98479.75
2023-03-14T06:45:33.688Z,98481.41
2023-03-14T06:48:00.430Z,98486.53
2023-03-14T06:50:27.015Z,98492.97
2023-03-14T06:52:53.623Z,98505.13
2023-03-14T06:55:22.500Z,98501.31
2023-03-14T06:57:49.224Z,98504.09
2023-03-14T07:00:16.233Z,98510.63
2023-03-14T07:02:43.599Z,98510.31
2023-03-14T07:05:13.536Z,98509.59
2023-03-14T07:07:40.191Z,98516.81
2023-03-14T07:10:08.259Z,98521.53
2023-03-14T07:12:34.759Z,98527.03
2023-03-14T07:15:15.668Z,98544.41
2023-03-14T07:17:45.081Z,98549.50
2023-03-14T07:20:11.928Z,98555.53
2023-03-14T07:22:38.523Z,98559.72
2023-03-14T07:25:05.553Z,98563.00
2023-03-14T07:27:32.267Z,98565.88
2023-03-14T07:29:58.773Z,98576.00
2023-03-14T07:32:25.472Z,98574.38
2023-03-14T07:34:52.044Z,98582.94
2023-03-14T07:37:18.552Z,98593.06
2023-03-14T07:39:45.139Z,98597.94
2023-03-14T07:42:12.301Z,98603.81
2023-03-14T07:44:38.919Z,98610.31
2023-03-14T07:47:05.704Z,98621.47
2023-03-14T07:49:32.748Z,98633.31
2023-03-14T07:52:00.102Z,98636.84
2023-03-14T07:54:26.680Z,98644.19
2023-03-14T07:56:53.499Z,98652.50
2023-03-14T07:59:20.217Z,98659.03
2023-03-14T08:01:46.937Z,98680.81
2023-03-14T08:04:13.580Z,98677.50
2023-03-14T08:06:40.184Z,98684.97
2023-03-14T08:09:06.772Z,98697.31
2023-03-14T08:11:33.411Z,98702.53
2023-03-14T08:13:59.923Z,98699.38
2023-03-14T08:16:26.619Z,98705.56
2023-03-14T08:18:53.273Z,98714.84
2023-03-14T08:21:19.828Z,98716.06
2023-03-14T08:23:46.478Z,98719.06
2023-03-14T08:26:13.154Z,98736.88
2023-03-14T08:28:39.658Z,98727.66
2023-03-14T08:31:06.402Z,98731.38
2023-03-14T08:33:33.142Z,98748.56
2023-03-14T08:36:01.489Z,98760.50
2023-03-14T08:38:28.769Z,98756.38
2023-03-14T08:41:00.507Z,98764.72
2023-03-14T08:43:28.379Z,98759.34
2023-03-14T08:45:58.062Z,98763.34
2023-03-14T08:48:24.648Z,98773.25
2023-03-14T08:50:51.124Z,98778.22
2023-03-14T08:53:17.956Z,98807.69
2023-03-14T08:55:44.556Z,98803.84
2023-03-14T08:58:11.071Z,98812.72
2023-03-14T09:00:37.709Z,98827.88
2023-03-14T09:03:04.324Z,98826.94
2023-03-14T09:05:34.359Z,98847.56
2023-03-14T09:08:01.633Z,98842.84
2023-03-14T09:10:28.316Z,98851.53
2023-03-14T09:12:54.819Z,98876.31
2023-03-14T09:15:21.454Z,98873.41
2023-03-14T09:17:48.174Z,98899.53
2023-03-14T09:20:15.477Z,98903.50
2023-03-14T09:22:42.177Z,98914.50
2023-03-14T09:25:09.530Z,98939.53
2023-03-14T09:27:36.075Z,98979.16
2023-03-14T09:30:03.403Z,99000.38
2023-03-14T09:32:32.736Z,99050.72
2023-03-14T09:34:59.466Z,99026.91
2023-03-14T09:37:26.145Z,99075.66
2023-03-14T09:39:52.820Z,99051.47
2023-03-14T09:42:23.692Z,99052.59
2023-03-14T09:45:00.891Z,99055.97
2023-03-14T09:47:28.197Z,99058.81
2023-03-14T09:49:54.761Z,99067.13
2023-03-14T09:52:42.825Z,99073.31
2023-03-14T09:55:22.449Z,99073.53
2023-03-14T09:57:51.862Z,99079.16
2023-03-14T10:00:22.753Z,99091.59
2023-03-14T10:02:58.109Z,99094.66
2023-03-14T10:05:26.745Z,99086.31
2023-03-14T10:07:53.220Z,99094.19
2023-03-14T10:10:22.226Z,99091.91
2023-03-14T10:12:57.267Z,99098.13
2023-03-14T10:15:30.546Z,99108.56
2023-03-14T10:18:00.485Z,99113.38
2023-03-14T10:20:43.547Z,99111.91
2023-03-14T10:23:12.817Z,99119.63
2023-03-14T10:25:44.502Z,99119.31
2023-03-14T10:28:29.105Z,99127.09
2023-03-14T10:30:57.201Z,99136.28
2023-03-14T10:33:32.830Z,99141.53
2023-03-14T10:36:04.099Z,99152.50
2023-03-14T10:38:36.563Z,99141.38
2023-03-14T10:41:15.652Z,99138.81
2023-03-14T10:43:42.678Z,99154.91
2023-03-14T10:46:20.315Z,99162.25
2023-03-14T10:48:47.467Z,99160.91
2023-03-14T10:51:31.169Z,99158.44
2023-03-14T10:54:14.242Z,99157.72
2023-03-14T10:56:43.227Z,99156.38
2023-03-14T10:59:16.629Z,99166.91
2023-03-14T11:01:59.092Z,99161.19
2023-03-14T11:04:56.226Z,99171.75
2023-03-14T11:07:34.746Z,99166.66
2023-03-14T11:10:27.613Z,99181.31
2023-03-14T11:13:18.524Z,99199.56
2023-03-14T11:15:59.187Z,99227.53
2023-03-14T11:18:49.041Z,99217.38
2023-03-14T11:21:35.869Z,99222.78
2023-03-14T11:24:21.576Z,99205.91
2023-03-14T11:27:06.888Z,99199.97
2023-03-14T11:29:42.137Z,99207.84
2023-03-14T11:32:15.378Z,99208.41
2023-03-14T11:34:53.075Z,99200.84
2023-03-14T11:37:41.733Z,99210.09
2023-03-14T11:40:41.493Z,99204.38
2023-03-14T11:43:33.766Z,99204.63
2023-03-14T11:46:06.551Z,99203.31
2023-03-14T11:48:45.188Z,99201.94
2023-03-14T11:51:35.647Z,99210.44
2023-03-14T11:54:12.317Z,99200.72
2023-03-14T11:56:42.055Z,99202.06
2023-03-14T11:59:23.065Z,99205.25
2023-03-14T12:02:24.592Z,99213.72
2023-03-14T12:05:15.940Z,99212.25
2023-03-14T12:08:07.280Z,99225.06
2023-03-14T12:10:41.602Z,99227.09
2023-03-14T12:13:11.895Z,99215.66
2023-03-14T12:15:50.166Z,99211.22
2023-03-14T12:18:29.500Z,99217.22
2023-03-14T12:20:59.535Z,99230.66
2023-03-14T12:23:28.250Z,99220.25
2023-03-14T12:26:23.146Z,99217.63
2023-03-14T12:28:51.867Z,99237.06
2023-03-14T12:31:30.956Z,99236.47
2023-03-14T12:34:12.956Z,99210.13
2023-03-14T12:36:49.815Z,99198.34
2023-03-14T12:39:47.216Z,99199.22
2023-03-14T12:42:16.427Z,99196.44
2023-03-14T12:44:45.675Z,99184.53
2023-03-14T12:47:21.706Z,99181.84
2023-03-14T12:49:51.066Z,99180.34
2023-03-14T12:52:22.390Z,99175.53
2023-03-14T12:54:54.916Z,99180.00
2023-03-14T12:57:41.513Z,99175.00
2023-03-14T13:00:22.632Z,99178.91
2023-03-14T13:02:50.362Z,99198.66
2023-03-14T13:05:24.339Z,99268.16
2023-03-14T13:07:55.722Z,99297.28
2023-03-14T13:10:37.149Z,99289.66
2023-03-14T13:13:26.827Z,99282.91
2023-03-14T13:16:04.624Z,99263.56
2023-03-14T13:18:40.562Z,99265.75
2023-03-14T13:21:20.657Z,99261.84
2023-03-14T13:23:58.018Z,99249.03
2023-03-14T13:26:25.523Z,99238.50
2023-03-14T13:28:52.062Z,99230.94
2023-03-14T13:31:28.058Z,99236.63
2023-03-14T13:34:03.270Z,99233.97
2023-03-14T13:36:30.025Z,99236.19
2023-03-14T13:39:00.915Z,99226.69
2023-03-14T13:41:28.527Z,99246.56
2023-03-14T13:44:04.794Z,99241.03
2023-03-14T13:46:34.075Z,99237.63
2023-03-14T13:49:04.266Z,99225.94
2023-03-14T13:51:34.200Z,99225.34
2023-03-14T13:54:01.437Z,99236.50
2023-03-14T13:56:30.099Z,99214.66
2023-03-14T13:58:57.400Z,99209.28
2023-03-14T14:01:26.384Z,99212.44
2023-03-14T14:03:55.876Z,99218.31
2023-03-14T14:06:32.336Z,99218.44
2023-03-14T14:09:04.010Z,99220.31
2023-03-14T14:12:07.517Z,99229.25
2023-03-14T14:14:42.056Z,99229.72
2023-03-14T14:17:16.906Z,99223.38
2023-03-14T14:19:44.898Z,99215.16
2023-03-14T14:22:11.925Z,99224.22
2023-03-14T14:24:39.600Z,99216.56
2023-03-14T14:27:37.882Z,99211.63
2023-03-14T14:30:26.538Z,99220.09
2023-03-14T14:32:53.365Z,99222.03
2023-03-14T14:35:38.193Z,99218.88
2023-03-14T14:38:14.085Z,99226.19
2023-03-14T14:40:46.987Z,99240.06
2023-03-14T14:43:19.286Z,99241.25
2023-03-14T14:45:48.768Z,99226.94
2023-03-14T14:48:15.896Z,99227.00
2023-03-14T14:50:48.633Z,99227.84
2023-03-14T14:53:37.814Z,99238.72
2023-03-14T14:56:25.705Z,99227.47
2023-03-14T14:59:00.667Z,99237.34
2023-03-14T15:01:34.110Z,99233.63
2023-03-14T15:04:01.123Z,99240.72
2023-03-14T15:06:30.316Z,99246.16
2023-03-14T15:08:56.856Z,99246.44
2023-03-14T15:11:26.330Z,99278.25
2023-03-14T15:13:53.800Z,99272.84
2023-03-14T15:16:28.675Z,99259.25
2023-03-14T15:18:57.671Z,99245.50
2023-03-14T15:21:26.016Z,99262.38
2023-03-14T15:23:53.353Z,99257.84
2023-03-14T15:26:22.272Z,99261.91
2023-03-14T15:28:49.545Z,99260.16
2023-03-14T15:31:18.824Z,99264.31
2023-03-14T15:33:46.369Z,99257.59
2023-03-14T15:36:28.658Z,99252.81
2023-03-14T15:38:56.562Z,99249.16
2023-03-14T15:41:24.072Z,99259.56
2023-03-14T15:43:50.855Z,99256.78
2023-03-14T15:46:22.653Z,99255.84
2023-03-14T15:48:51.072Z,99256.78
2023-03-14T15:51:18.086Z,99273.16
2023-03-14T15:53:44.744Z,99265.16
2023-03-14T15:56:15.688Z,99251.28
2023-03-14T15:58:42.517Z,99251.50
2023-03-14T16:01:12.460Z,99261.56
2023-03-14T16:03:39.490Z,99255.47
2023-03-14T16:06:06.527Z,99261.69
2023-03-14T16:08:33.160Z,99268.69
2023-03-14T16:11:00.421Z,99257.69
2023-03-14T16:13:28.647Z,99268.53
2023-03-14T16:15:56.056Z,99278.28
2023-03-14T16:18:23.037Z,99272.97
2023-03-14T16:20:58.313Z,99271.63
2023-03-14T16:23:25.921Z,99274.81
2023-03-14T16:25:53.903Z,99268.72
2023-03-14T16:28:20.761Z,99274.97
2023-03-14T16:30:47.822Z,99283.19
2023-03-14T16:33:16.061Z,99282.84
2023-03-14T16:35:53.996Z,99286.66
2023-03-14T16:38:20.673Z,99276.28
2023-03-14T16:40:56.536Z,99283.19
2023-03-14T16:43:23.044Z,99285.84
2023-03-14T16:45:50.916Z,99294.03
2023-03-14T16:48:17.737Z,99313.25
2023-03-14T16:50:44.274Z,99308.19
2023-03-14T16:55:59.110Z,99314.63
2023-03-14T16:58:26.060Z,99315.25
2023-03-14T17:00:52.674Z,99327.78
2023-03-14T17:03:19.732Z,99322.31
2023-03-14T17:05:48.646Z,99323.81
2023-03-14T17:08:16.863Z,99321.44
2023-03-14T17:10:43.526Z,99324.50
2023-03-14T17:13:10.615Z,99325.56
2023-03-14T17:15:37.528Z,99336.28
2023-03-14T17:18:04.851Z,99337.59
2023-03-14T17:20:32.334Z,99333.00
2023-03-14T17:22:58.910Z,99342.28
2023-03-14T17:25:25.601Z,99345.53
2023-03-14T17:27:52.177Z,99356.28
2023-03-14T17:30:18.835Z,99348.06
2023-03-14T17:32:45.494Z,99348.91
2023-03-14T17:35:12.182Z,99347.44
2023-03-14T17:37:38.809Z,99361.41
2023-03-14T17:40:06.175Z,99361.72
2023-03-14T17:42:32.975Z,99364.94
2023-03-14T17:44:59.498Z,99359.47
2023-03-14T17:47:26.178Z,99376.47
2023-03-14T17:49:52.735Z,99374.84
2023-03-14T17:52:19.436Z,99376.63
2023-03-14T17:54:46.101Z,99380.72
2023-03-14T17:57:12.649Z,99395.59
2023-03-14T17:59:39.177Z,99402.88
2023-03-14T18:02:06.809Z,99406.63
2023-03-14T18:04:33.623Z,99412.94
2023-03-14T18:07:00.258Z,99417.19
2023-03-14T18:09:26.895Z,99416.03
2023-03-14T18:12:05.163Z,99419.72
2023-03-14T18:14:34.595Z,99429.56
2023-03-14T18:17:01.244Z,99434.38
2023-03-14T18:19:27.758Z,99434.97
2023-03-14T18:21:54.362Z,99431.63
2023-03-14T18:24:21.819Z,99435.38
2023-03-14T18:26:48.705Z,99431.41
2023-03-14T18:29:15.376Z,99435.94
2023-03-14T18:31:42.696Z,99434.94
2023-03-14T18:34:09.963Z,99446.41
2023-03-14T18:36:36.911Z,99460.91
2023-03-14T18:39:06.754Z,99458.97
2023-03-14T18:41:35.009Z,99461.16
2023-03-14T18:44:02.340Z,99457.94
2023-03-14T18:46:29.731Z,99459.91
2023-03-14T18:48:56.888Z,99467.13
2023-03-14T18:51:29.172Z,99470.56
2023-03-14T18:54:08.439Z,99475.09
2023-03-14T18:56:36.486Z,99485.53
2023-03-14T18:59:03.137Z,99478.19
2023-03-14T19:01:31.524Z,99480.94
2023-03-14T19:04:01.675Z,99490.59
2023-03-14T19:06:31.968Z,99500.84
2023-03-14T19:08:58.914Z,99499.06
2023-03-14T19:11:26.866Z,99502.53
2023-03-14T19:13:57.011Z,99497.97
2023-03-14T19:16:24.787Z,99506.19
2023-03-14T19:18:55.737Z,99505.34
2023-03-14T19:21:32.692Z,99501.78
2023-03-14T19:23:59.766Z,99505.50
2023-03-14T19:26:28.754Z,99520.03
2023-03-14T19:28:55.584Z,99516.91
2023-03-14T19:31:22.273Z,99518.28
2023-03-14T19:33:48.976Z,99526.59
2023-03-14T19:36:21.338Z,99529.47
2023-03-14T19:38:48.291Z,99527.25
2023-03-14T19:41:14.797Z,99527.50
2023-03-14T19:43:41.424Z,99536.06
2023-03-14T19:46:08.084Z,99535.97
2023-03-14T19:48:34.593Z,99534.97
2023-03-14T19:51:01.598Z,99541.53
2023-03-14T19:53:28.723Z,99549.22
2023-03-14T19:55:55.273Z,99549.44
2023-03-14T19:58:23.695Z,99553.41
2023-03-14T20:00:50.964Z,99563.28
2023-03-14T20:03:17.542Z,99553.78
2023-03-14T20:05:47.013Z,99563.56
2023-03-14T20:08:13.772Z,99559.22
2023-03-14T20:10:40.308Z,99559.69
2023-03-14T20:13:19.017Z,99552.13
2023-03-14T20:15:47.874Z,99560.88
2023-03-14T20:18:14.459Z,99565.47
2023-03-14T20:20:44.331Z,99573.13
2023-03-14T20:23:11.043Z,99582.53
2023-03-14T20:25:37.979Z,99588.38
2023-03-14T20:28:05.267Z,99578.41
2023-03-14T20:30:32.674Z,99594.53
2023-03-14T20:32:59.519Z,99592.56
2023-03-14T20:35:26.178Z,99599.50
2023-03-14T20:37:54.338Z,99599.31
2023-03-14T20:40:21.249Z,99604.88
2023-03-14T20:42:47.784Z,99603.69
2023-03-14T20:45:15.045Z,99605.31
2023-03-14T20:47:41.951Z,99612.91
2023-03-14T20:50:09.520Z,99616.13
2023-03-14T20:52:36.378Z,99624.44
2023-03-14T20:55:03.553Z,99625.66
2023-03-14T20:57:30.064Z,99634.44
2023-03-14T20:59:56.739Z,99642.13
2023-03-14T21:02:38.708Z,99640.16
2023-03-14T21:05:06.331Z,99644.09
2023-03-14T21:07:34.369Z,99639.41
2023-03-14T21:10:00.917Z,99642.38
2023-03-14T21:12:27.542Z,99643.50
2023-03-14T21:14:54.169Z,99648.56
2023-03-14T21:17:21.042Z,99650.38
2023-03-14T21:19:47.610Z,99654.66
2023-03-14T21:22:18.453Z,99647.41
2023-03-14T21:24:46.166Z,99652.13
2023-03-14T21:27:12.821Z,99652.06
2023-03-14T21:29:39.557Z,99658.81
2023-03-14T21:32:06.202Z,99663.34
2023-03-14T21:34:33.142Z,99663.66
2023-03-14T21:36:59.684Z,99669.00
2023-03-14T21:39:26.241Z,99673.22
2023-03-14T21:41:52.932Z,99664.94
2023-03-14T21:44:20.536Z,99667.16
2023-03-14T21:46:48.016Z,99663.03
2023-03-14T21:49:15.753Z,99660.06
2023-03-14T21:51:45.851Z,99667.09
2023-03-14T21:54:16.880Z,99678.53
2023-03-14T21:56:44.108Z,99684.22
2023-03-14T21:59:11.433Z,99682.22
2023-03-14T22:01:38.261Z,99691.44
2023-03-14T22:04:04.939Z,99702.25
2023-03-14T22:06:31.503Z,99703.88
2023-03-14T22:08:58.111Z,99697.19
2023-03-14T22:11:25.170Z,99704.38
2023-03-14T22:13:51.836Z,99708.06
2023-03-14T22:16:18.471Z,99702.03
2023-03-14T22:18:45.546Z,99696.22
2023-03-14T22:21:12.110Z,99704.16
2023-03-14T22:23:38.792Z,99699.34
2023-03-14T22:26:05.422Z,99693.16
2023-03-14T22:28:31.922Z,99707.84
2023-03-14T22:30:59.165Z,99709.38
2023-03-14T22:33:26.533Z,99716.84
2023-03-14T22:35:53.530Z,99708.34
2023-03-14T22:38:20.448Z,99699.53
2023-03-14T22:40:47.200Z,99698.22
2023-03-14T22:43:13.900Z,99714.59
2023-03-14T22:45:40.743Z,99699.97
2023-03-14T22:48:07.550Z,99700.97
2023-03-14T22:50:34.792Z,99708.59
2023-03-14T22:53:01.548Z,99712.81
2023-03-14T22:55:28.037Z,99722.97
2023-03-14T22:57:55.249Z,99729.66
2023-03-14T23:00:22.886Z,99739.22
2023-03-14T23:02:49.529Z,99737.41
2023-03-14T23:05:16.348Z,99735.81
2023-03-14T23:07:42.917Z,99743.16
2023-03-14T23:10:10.471Z,99748.97
2023-03-14T23:12:37.053Z,99753.66
2023-03-14T23:15:06.431Z,99753.25
2023-03-14T23:17:33.764Z,99753.06
2023-03-14T23:20:00.292Z,99756.53
2023-03-14T23:22:28.051Z,99760.28
2023-03-14T23:24:54.677Z,99761.53
2023-03-14T23:27:21.604Z,99755.13
2023-03-14T23:29:48.265Z,99758.25
2023-03-14T23:32:17.700Z,99762.66
2023-03-14T23:34:44.493Z,99757.91
2023-03-14T23:37:15.050Z,99769.53
2023-03-14T23:39:45.337Z,99771.59
2023-03-14T23:42:12.476Z,99778.03
2023-03-14T23:44:39.177Z,99775.28
2023-03-14T23:47:05.907Z,99794.94
2023-03-14T23:49:32.495Z,99789.03
2023-03-14T23:51:59.149Z,99788.84
2023-03-14T23:54:25.774Z,99793.34
2023-03-14T23:56:52.314Z,99799.41
2023-03-14T23:59:19.038Z,99796.66
